Time;durP1;ratioP1;P1;durP2;ratioP2;P2;SDS_P1;SDS_P2;PMS_P1;PMS_P2;Temp;Humidity;BMP_temperature;BMP_pressure;BME280_temperature;BME280_humidity;BME280_pressure;Samples;Min_cycle;Max_cycle;Signal;HPM_P1;HPM_P2
2024/02/05 00:02:24;;;;;;;5.70;4.90;;;10.00;99.90;;;;;;5050530;28;20258;-89
2024/02/05 00:04:50;;;;;;;5.47;4.72;;;10.00;99.90;;;;;;5032382;28;20186;-89
2024/02/05 00:07:17;;;;;;;5.50;4.78;;;10.00;99.90;;;;;;5040992;28;20193;-90
2024/02/05 00:09:47;;;;;;;8.20;5.10;;;10.00;99.90;;;;;;5040612;28;20188;-90
2024/02/05 00:12:16;;;;;;;6.50;4.45;;;10.00;99.90;;;;;;5038489;28;20256;-89
2024/02/05 00:14:42;;;;;;;7.20;4.75;;;10.10;99.90;;;;;;5036788;28;20293;-91
2024/02/05 00:17:09;;;;;;;5.72;4.70;;;10.10;99.90;;;;;;5024934;28;20226;-86
2024/02/05 00:19:35;;;;;;;8.25;4.63;;;10.20;99.90;;;;;;5040366;28;20193;-92
2024/02/05 00:22:02;;;;;;;4.60;4.20;;;10.20;99.90;;;;;;5040255;28;20178;-90
2024/02/05 00:24:27;;;;;;;6.45;4.40;;;10.20;99.90;;;;;;5037150;28;20521;-92
2024/02/05 00:26:53;;;;;;;8.80;4.50;;;10.20;99.90;;;;;;5032370;28;20182;-91
2024/02/05 00:29:19;;;;;;;6.13;4.72;;;10.10;99.90;;;;;;5038972;28;20182;-91
2024/02/05 00:31:48;;;;;;;7.30;4.65;;;10.10;99.90;;;;;;5028636;28;20210;-90
2024/02/05 00:34:15;;;;;;;5.88;4.30;;;10.10;99.90;;;;;;5028321;28;20182;-88
2024/02/05 00:36:42;;;;;;;5.47;4.47;;;10.20;99.90;;;;;;5031910;28;20381;-88
2024/02/05 00:39:10;;;;;;;7.43;4.47;;;10.30;99.90;;;;;;5039905;28;20630;-88
2024/02/05 00:41:39;;;;;;;7.43;4.40;;;10.30;99.90;;;;;;5031952;28;20210;-91
2024/02/05 00:44:05;;;;;;;8.25;4.65;;;10.30;99.90;;;;;;5033107;28;20261;-88
2024/02/05 00:46:31;;;;;;;5.97;4.40;;;10.20;99.90;;;;;;5039293;28;20197;-91
2024/02/05 00:48:57;;;;;;;5.43;4.13;;;10.10;99.90;;;;;;5039952;28;20181;-85
2024/02/05 00:51:25;;;;;;;4.90;4.32;;;10.10;99.90;;;;;;5038932;28;20292;-90
2024/02/05 00:53:51;;;;;;;5.82;4.43;;;10.20;99.90;;;;;;5025902;28;20186;-89
2024/02/05 00:56:17;;;;;;;4.25;3.80;;;10.20;99.90;;;;;;5034068;28;20179;-90
2024/02/05 00:58:43;;;;;;;9.20;3.88;;;10.20;99.90;;;;;;5039446;28;20343;-88
2024/02/05 01:01:10;;;;;;;7.47;3.42;;;10.20;99.90;;;;;;5031439;28;20184;-92
2024/02/05 01:03:38;;;;;;;9.32;3.95;;;10.30;99.90;;;;;;5035798;28;20205;-89
2024/02/05 01:06:04;;;;;;;4.95;3.53;;;10.30;99.90;;;;;;5018949;28;20687;-87
2024/02/05 01:08:30;;;;;;;5.53;3.60;;;10.20;99.90;;;;;;5035804;28;20193;-89
2024/02/05 01:10:59;;;;;;;5.32;3.88;;;10.20;99.90;;;;;;5033015;28;20190;-91
2024/02/05 01:13:26;;;;;;;5.32;3.72;;;10.30;99.90;;;;;;5038744;28;20213;-88
2024/02/05 01:15:52;;;;;;;4.60;3.55;;;10.30;99.90;;;;;;5033608;28;20187;-91
2024/02/05 01:18:19;;;;;;;5.07;3.22;;;10.40;99.90;;;;;;5035896;28;20211;-88
2024/02/05 01:20:45;;;;;;;4.72;3.60;;;10.30;99.90;;;;;;5026248;28;20186;-89
2024/02/05 01:23:11;;;;;;;6.60;4.00;;;10.20;99.90;;;;;;5026527;28;20196;-89
2024/02/05 01:25:37;;;;;;;5.47;4.05;;;10.20;99.90;;;;;;5030354;28;20182;-87
2024/02/05 01:28:03;;;;;;;6.22;4.25;;;10.20;99.90;;;;;;5031616;28;20527;-89
2024/02/05 01:30:29;;;;;;;5.43;3.42;;;10.20;99.90;;;;;;5036101;28;20209;-91
2024/02/05 01:32:58;;;;;;;4.63;3.05;;;10.20;99.90;;;;;;5038622;28;20214;-88
2024/02/05 01:35:24;;;;;;;6.50;3.58;;;10.20;99.90;;;;;;5021799;28;20563;-90
2024/02/05 01:37:50;;;;;;;4.88;3.40;;;10.20;99.90;;;;;;5035131;28;20202;-89
2024/02/05 01:40:16;;;;;;;4.85;3.20;;;10.10;99.90;;;;;;5037326;28;20193;-91
2024/02/05 01:42:51;;;;;;;5.85;3.47;;;10.20;99.90;;;;;;5034343;28;20186;-90
2024/02/05 01:45:17;;;;;;;3.88;3.45;;;10.30;99.90;;;;;;5018432;28;20186;-86
2024/02/05 01:47:43;;;;;;;4.65;3.55;;;10.20;99.90;;;;;;5022336;28;20186;-92
2024/02/05 01:50:12;;;;;;;3.55;2.78;;;10.20;99.90;;;;;;5029927;28;20189;-91
2024/02/05 01:52:48;;;;;;;4.13;3.63;;;10.20;99.90;;;;;;5030125;28;20228;-86
2024/02/05 01:55:16;;;;;;;4.25;3.65;;;10.20;99.90;;;;;;5038404;28;20231;-93
2024/02/05 01:57:44;;;;;;;4.03;3.17;;;10.10;99.90;;;;;;5038025;28;20524;-94
2024/02/05 02:00:14;;;;;;;4.25;3.13;;;10.10;99.90;;;;;;5030273;28;20209;-91
2024/02/05 02:02:42;;;;;;;3.35;3.00;;;10.10;99.90;;;;;;5022027;28;20185;-92
2024/02/05 02:05:09;;;;;;;4.70;3.45;;;10.10;99.90;;;;;;5029587;28;20181;-93
2024/02/05 02:07:35;;;;;;;4.55;3.20;;;10.00;99.90;;;;;;5018855;28;20186;-91
2024/02/05 02:10:02;;;;;;;6.50;3.10;;;10.10;99.90;;;;;;5032780;28;20265;-90
2024/02/05 02:12:33;;;;;;;3.88;2.72;;;10.10;99.90;;;;;;5029515;28;20248;-92
2024/02/05 02:14:59;;;;;;;8.20;3.20;;;10.20;99.90;;;;;;5037829;28;20277;-92
2024/02/05 02:17:28;;;;;;;3.13;2.83;;;10.20;99.90;;;;;;5037905;28;20528;-90
2024/02/05 02:19:54;;;;;;;5.50;3.20;;;10.20;99.90;;;;;;5037380;28;20620;-94
2024/02/05 02:22:51;;;;;;;4.38;3.15;;;10.10;99.90;;;;;;5036648;28;20239;-93
2024/02/05 02:25:17;;;;;;;5.30;3.08;;;10.10;99.90;;;;;;5035059;28;20177;-92
2024/02/05 02:27:45;;;;;;;8.25;3.28;;;10.20;99.90;;;;;;5034623;28;20182;-93
2024/02/05 02:30:13;;;;;;;5.82;2.95;;;10.20;99.90;;;;;;5037953;28;20192;-90
2024/02/05 02:32:52;;;;;;;4.80;3.58;;;10.20;99.90;;;;;;5045857;28;20233;-89
2024/02/05 02:35:31;;;;;;;4.55;3.20;;;10.20;99.90;;;;;;5036586;28;20217;-89
2024/02/05 02:38:05;;;;;;;3.72;2.65;;;10.20;99.90;;;;;;5023395;28;20208;-90
2024/02/05 02:40:34;;;;;;;3.28;3.00;;;10.20;99.90;;;;;;5047543;28;20176;-88
2024/02/05 02:43:03;;;;;;;5.68;2.95;;;10.20;99.90;;;;;;5048443;28;20182;-89
2024/02/05 02:45:31;;;;;;;4.30;3.13;;;10.10;99.90;;;;;;5480585;22;20564;-84
2024/02/05 02:47:57;;;;;;;3.70;2.60;;;10.20;99.90;;;;;;5038534;28;20177;-83
2024/02/05 02:50:22;;;;;;;4.18;3.05;;;10.30;99.90;;;;;;5043167;28;20231;-83
2024/02/05 02:52:48;;;;;;;5.90;3.10;;;10.20;99.90;;;;;;5040863;28;20224;-83
2024/02/05 02:55:14;;;;;;;3.08;2.78;;;10.20;99.90;;;;;;5048931;28;20216;-82
2024/02/05 02:57:40;;;;;;;6.55;3.38;;;10.10;99.90;;;;;;5045437;28;20213;-84
2024/02/05 03:00:09;;;;;;;4.38;2.97;;;10.20;99.90;;;;;;5038402;28;20178;-92
2024/02/05 03:02:35;;;;;;;4.03;3.17;;;10.10;99.90;;;;;;5033444;28;20511;-85
2024/02/05 03:05:06;;;;;;;4.93;2.72;;;10.10;99.90;;;;;;5041115;28;20174;-85
2024/02/05 03:07:35;;;;;;;7.93;3.35;;;10.20;99.90;;;;;;5053210;28;20635;-83
2024/02/05 03:10:05;;;;;;;4.75;3.00;;;10.10;99.90;;;;;;5047641;28;20175;-83
2024/02/05 03:12:32;;;;;;;4.82;2.83;;;10.00;99.90;;;;;;5041993;28;20208;-84
2024/02/05 03:14:59;;;;;;;4.30;2.83;;;10.00;99.90;;;;;;5047085;28;20178;-83
2024/02/05 03:17:25;;;;;;;4.75;2.78;;;10.10;99.90;;;;;;5044267;28;20178;-85
2024/02/05 03:19:51;;;;;;;5.00;3.13;;;10.00;99.90;;;;;;5054042;28;20185;-86
2024/02/05 03:22:16;;;;;;;4.60;3.10;;;10.00;99.90;;;;;;5054045;28;20178;-86
2024/02/05 03:24:42;;;;;;;5.55;3.20;;;10.10;99.90;;;;;;5044326;28;20185;-85
2024/02/05 03:27:10;;;;;;;6.80;3.35;;;10.10;99.90;;;;;;5052872;28;20185;-90
2024/02/05 03:29:36;;;;;;;5.70;3.25;;;10.10;99.90;;;;;;5033152;28;20182;-89
2024/02/05 03:32:03;;;;;;;5.25;3.35;;;10.10;99.90;;;;;;5039102;28;20213;-86
2024/02/05 03:34:29;;;;;;;5.60;3.38;;;10.00;99.90;;;;;;5036056;28;20193;-89
2024/02/05 03:36:57;;;;;;;4.68;3.80;;;10.00;99.90;;;;;;5045471;28;20181;-87
2024/02/05 03:39:24;;;;;;;8.00;3.95;;;9.90;99.90;;;;;;5044366;28;20190;-88
2024/02/05 03:41:50;;;;;;;11.82;4.65;;;10.00;99.90;;;;;;5047560;28;20243;-88
2024/02/05 03:44:15;;;;;;;8.20;3.88;;;10.00;99.90;;;;;;5040694;28;20174;-89
2024/02/05 03:46:41;;;;;;;7.22;4.20;;;10.00;99.90;;;;;;5041904;28;20257;-85
2024/02/05 03:49:07;;;;;;;6.05;4.13;;;10.00;99.90;;;;;;5048172;28;20227;-84
2024/02/05 03:51:36;;;;;;;7.63;4.55;;;10.00;99.90;;;;;;5042611;28;20174;-83
2024/02/05 03:54:05;;;;;;;9.25;5.00;;;9.90;99.90;;;;;;5040853;28;20196;-84
2024/02/05 03:56:31;;;;;;;16.88;5.15;;;10.00;99.90;;;;;;5033713;28;20170;-84
2024/02/05 03:58:57;;;;;;;9.23;5.78;;;9.90;99.90;;;;;;5043005;28;20213;-84
2024/02/05 04:01:23;;;;;;;10.98;5.47;;;9.90;99.90;;;;;;5037573;28;20202;-84
2024/02/05 04:03:49;;;;;;;13.82;5.75;;;9.90;99.90;;;;;;5049288;28;20217;-85
2024/02/05 04:06:15;;;;;;;8.55;6.07;;;10.00;99.90;;;;;;5047031;28;20232;-88
2024/02/05 04:08:41;;;;;;;11.70;5.82;;;10.00;99.90;;;;;;5055423;28;20217;-85
2024/02/05 04:11:07;;;;;;;11.02;6.57;;;9.90;99.90;;;;;;5055365;28;20177;-85
2024/02/05 04:13:33;;;;;;;11.13;6.30;;;9.80;99.90;;;;;;5056150;28;20648;-84
2024/02/05 04:15:59;;;;;;;10.07;6.15;;;9.80;99.90;;;;;;5048924;28;20186;-84
2024/02/05 04:18:24;;;;;;;10.75;6.05;;;9.80;99.90;;;;;;5059865;28;20244;-84
2024/02/05 04:20:56;;;;;;;10.43;5.70;;;9.80;99.90;;;;;;5035113;28;20182;-85
2024/02/05 04:23:25;;;;;;;11.77;5.78;;;9.80;99.90;;;;;;5035016;28;20593;-84
2024/02/05 04:25:51;;;;;;;7.85;5.82;;;9.80;99.90;;;;;;5035126;28;20555;-85
2024/02/05 04:28:18;;;;;;;11.98;5.47;;;9.80;99.90;;;;;;5035010;28;20277;-89
2024/02/05 04:30:43;;;;;;;12.07;5.85;;;9.80;99.90;;;;;;5044272;28;20257;-85
2024/02/05 04:33:09;;;;;;;12.27;5.90;;;9.80;99.90;;;;;;5050894;28;20312;-84
2024/02/05 04:35:35;;;;;;;11.63;5.70;;;9.90;99.90;;;;;;5045134;28;20233;-84
2024/02/05 04:38:01;;;;;;;9.82;5.55;;;9.80;99.90;;;;;;5049829;28;20182;-85
2024/02/05 04:40:27;;;;;;;10.60;5.45;;;9.80;99.90;;;;;;5044908;28;20508;-84
2024/02/05 04:42:53;;;;;;;12.63;5.55;;;9.80;99.90;;;;;;5049740;28;20185;-85
2024/02/05 04:45:19;;;;;;;10.65;5.07;;;9.80;99.90;;;;;;5047014;28;20249;-84
2024/02/05 04:47:47;;;;;;;10.40;4.70;;;9.90;99.90;;;;;;5044547;28;20175;-84
2024/02/05 04:50:13;;;;;;;13.32;5.45;;;9.80;99.90;;;;;;5042838;28;20214;-83
2024/02/05 04:52:39;;;;;;;12.25;4.70;;;9.80;99.90;;;;;;5051249;28;20576;-84
2024/02/05 04:55:06;;;;;;;8.57;5.05;;;9.90;99.90;;;;;;5050075;28;20189;-84
2024/02/05 04:57:31;;;;;;;13.70;5.50;;;9.80;99.90;;;;;;5039447;28;20269;-84
2024/02/05 04:59:58;;;;;;;12.20;5.43;;;9.80;99.90;;;;;;5046553;28;20688;-83
2024/02/05 05:02:23;;;;;;;12.10;5.28;;;9.80;99.90;;;;;;5054242;28;20182;-83
2024/02/05 05:04:49;;;;;;;13.77;5.40;;;9.80;99.90;;;;;;5050901;28;20502;-91
2024/02/05 05:07:18;;;;;;;15.40;5.90;;;9.70;99.90;;;;;;5035881;28;20178;-96
2024/02/05 05:09:44;;;;;;;12.25;5.43;;;9.80;99.90;;;;;;5050300;28;20720;-90
2024/02/05 05:12:10;;;;;;;14.30;6.03;;;9.80;99.90;;;;;;5034362;28;20220;-82
2024/02/05 05:14:37;;;;;;;9.55;6.25;;;9.80;99.90;;;;;;5042653;28;20269;-83
2024/02/05 05:17:03;;;;;;;18.45;6.20;;;9.80;99.90;;;;;;5034310;28;20178;-83
2024/02/05 05:19:29;;;;;;;17.00;6.75;;;9.80;99.90;;;;;;5042469;28;20190;-82
2024/02/05 05:21:55;;;;;;;16.88;7.60;;;9.70;99.90;;;;;;5043867;28;20175;-84
2024/02/05 05:24:21;;;;;;;21.48;8.10;;;9.70;99.90;;;;;;5043596;28;20186;-85
2024/02/05 05:26:47;;;;;;;19.20;6.90;;;9.70;99.90;;;;;;5035672;28;20178;-85
2024/02/05 05:29:13;;;;;;;16.17;7.20;;;9.70;99.90;;;;;;5050377;28;20223;-83
2024/02/05 05:31:38;;;;;;;18.77;6.60;;;9.80;99.90;;;;;;5033843;28;20225;-83
2024/02/05 05:34:05;;;;;;;18.58;6.95;;;9.80;99.90;;;;;;5042258;28;20257;-83
2024/02/05 05:36:32;;;;;;;16.35;6.38;;;9.80;99.90;;;;;;5043448;28;20183;-84
2024/02/05 05:38:57;;;;;;;19.45;6.50;;;9.80;99.90;;;;;;5040016;28;20177;-85
2024/02/05 05:41:23;;;;;;;20.08;6.68;;;9.80;99.90;;;;;;5044445;28;20212;-86
2024/02/05 05:43:52;;;;;;;19.50;6.35;;;9.80;99.90;;;;;;5042352;28;20193;-87
2024/02/05 05:46:18;;;;;;;27.27;7.18;;;9.70;99.90;;;;;;5044054;28;20559;-88
2024/02/05 05:48:44;;;;;;;23.67;7.68;;;9.80;99.90;;;;;;5041833;28;20216;-89
2024/02/05 05:51:10;;;;;;;24.55;7.65;;;9.70;99.90;;;;;;5049769;28;20185;-84
2024/02/05 05:53:36;;;;;;;22.40;7.50;;;9.80;99.90;;;;;;5053538;28;20217;-83
2024/02/05 05:56:02;;;;;;;29.85;7.70;;;9.70;99.90;;;;;;5054756;28;20257;-83
2024/02/05 05:58:28;;;;;;;26.30;7.35;;;9.70;99.90;;;;;;5044709;28;20322;-84
2024/02/05 06:00:54;;;;;;;26.85;7.40;;;9.70;99.90;;;;;;5046968;28;20177;-83
2024/02/05 06:03:20;;;;;;;24.10;7.75;;;9.70;99.90;;;;;;5044083;28;20541;-85
2024/02/05 06:05:47;;;;;;;22.65;7.65;;;9.70;99.90;;;;;;5041649;28;20182;-84
2024/02/05 06:08:14;;;;;;;26.53;7.67;;;9.70;99.90;;;;;;5050906;28;20178;-86
2024/02/05 06:10:42;;;;;;;26.98;7.50;;;9.60;99.90;;;;;;5033452;28;20561;-85
2024/02/05 06:13:08;;;;;;;33.97;8.40;;;9.60;99.90;;;;;;5040675;28;20271;-84
2024/02/05 06:15:34;;;;;;;28.25;8.35;;;9.60;99.90;;;;;;5051178;28;20190;-83
2024/02/05 06:17:59;;;;;;;32.75;7.53;;;9.50;99.90;;;;;;5047920;28;20189;-83
2024/02/05 06:20:25;;;;;;;28.95;8.13;;;9.50;99.90;;;;;;5045677;28;20304;-84
2024/02/05 06:22:51;;;;;;;23.20;7.28;;;9.50;99.90;;;;;;5042521;28;20185;-84
2024/02/05 06:25:17;;;;;;;32.97;7.30;;;9.50;99.90;;;;;;5051362;28;20244;-84
2024/02/05 06:27:43;;;;;;;31.42;8.02;;;9.50;99.90;;;;;;5047647;28;20307;-87
2024/02/05 06:30:09;;;;;;;29.23;7.82;;;9.50;99.90;;;;;;5039089;28;20232;-92
2024/02/05 06:32:35;;;;;;;34.13;8.43;;;9.60;99.90;;;;;;5033179;28;20618;-84
2024/02/05 06:35:01;;;;;;;29.58;7.05;;;9.50;99.90;;;;;;5040796;28;20269;-84
2024/02/05 06:37:27;;;;;;;21.42;7.05;;;9.50;99.90;;;;;;5050923;28;20512;-84
2024/02/05 06:39:54;;;;;;;28.83;7.10;;;9.50;99.90;;;;;;5034183;28;20269;-83
2024/02/05 06:42:21;;;;;;;27.83;8.30;;;9.50;99.90;;;;;;5041161;28;20267;-83
2024/02/05 06:44:48;;;;;;;33.72;7.53;;;9.50;99.90;;;;;;5033579;28;20258;-84
2024/02/05 06:47:14;;;;;;;30.75;7.80;;;9.50;99.90;;;;;;5051496;28;20186;-84
2024/02/05 06:49:40;;;;;;;34.92;7.45;;;9.50;99.90;;;;;;5042239;28;20234;-83
2024/02/05 06:52:06;;;;;;;30.33;7.65;;;9.50;99.90;;;;;;5048374;28;20221;-83
2024/02/05 06:54:32;;;;;;;28.30;8.18;;;9.50;99.90;;;;;;5044499;28;20186;-85
2024/02/05 06:57:00;;;;;;;28.73;6.93;;;9.50;99.90;;;;;;5054207;28;20196;-84
2024/02/05 06:59:26;;;;;;;26.30;8.00;;;9.50;99.90;;;;;;5052316;28;20336;-84
2024/02/05 07:01:52;;;;;;;30.00;7.97;;;9.50;99.90;;;;;;5047642;28;20677;-83
2024/02/05 07:04:18;;;;;;;24.23;6.78;;;9.50;99.90;;;;;;5032976;28;20182;-84
2024/02/05 07:06:44;;;;;;;29.27;6.37;;;9.50;99.90;;;;;;5044697;28;20182;-89
2024/02/05 07:09:13;;;;;;;22.20;6.88;;;9.50;99.90;;;;;;5053505;28;20193;-91
2024/02/05 07:11:39;;;;;;;26.30;6.68;;;9.60;99.90;;;;;;5042332;28;20174;-90
2024/02/05 07:14:05;;;;;;;33.90;6.93;;;9.60;99.90;;;;;;5033878;28;20186;-83
2024/02/05 07:16:30;;;;;;;25.52;8.07;;;9.60;99.90;;;;;;5044002;28;20178;-84
2024/02/05 07:18:56;;;;;;;37.13;7.45;;;9.60;99.90;;;;;;5052660;28;20196;-86
2024/02/05 07:21:22;;;;;;;31.90;6.68;;;9.70;99.90;;;;;;5052765;28;20612;-84
2024/02/05 07:23:48;;;;;;;28.98;7.85;;;9.70;99.90;;;;;;5044392;28;20596;-83
2024/02/05 07:26:14;;;;;;;25.92;7.95;;;9.70;99.90;;;;;;5052284;28;20521;-85
2024/02/05 07:28:41;;;;;;;31.20;7.72;;;9.70;99.90;;;;;;5042079;28;20183;-85
2024/02/05 07:31:08;;;;;;;26.92;6.70;;;9.70;99.90;;;;;;5039578;28;20205;-84
2024/02/05 07:33:34;;;;;;;31.90;7.07;;;9.70;99.90;;;;;;5038506;28;20275;-86
2024/02/05 07:36:00;;;;;;;29.15;6.57;;;9.70;99.90;;;;;;5042172;28;20527;-85
2024/02/05 07:38:28;;;;;;;23.52;6.55;;;9.60;99.90;;;;;;5044972;28;20182;-87
2024/02/05 07:40:53;;;;;;;30.20;6.85;;;9.70;99.90;;;;;;5050010;28;20209;-83
2024/02/05 07:43:19;;;;;;;25.83;6.88;;;9.70;99.90;;;;;;5057415;28;20182;-90
2024/02/05 07:45:45;;;;;;;28.13;7.53;;;9.60;99.90;;;;;;5056158;28;20580;-84
2024/02/05 07:48:11;;;;;;;22.95;6.97;;;9.70;99.90;;;;;;5055775;28;20624;-84
2024/02/05 07:50:38;;;;;;;25.83;6.68;;;9.60;99.90;;;;;;5044754;28;20182;-90
2024/02/05 07:53:06;;;;;;;26.10;7.50;;;9.60;99.90;;;;;;5035851;28;20210;-90
2024/02/05 07:55:31;;;;;;;29.58;8.15;;;9.50;99.90;;;;;;5035767;28;20274;-84
2024/02/05 07:57:57;;;;;;;25.27;6.80;;;9.50;99.90;;;;;;5049927;28;20586;-84
2024/02/05 08:00:23;;;;;;;21.27;7.18;;;9.50;99.90;;;;;;5054608;28;20182;-84
2024/02/05 08:02:49;;;;;;;31.13;7.70;;;9.40;99.90;;;;;;5035523;28;20398;-84
2024/02/05 08:05:15;;;;;;;32.78;7.97;;;9.40;99.90;;;;;;5037141;28;20179;-83
2024/02/05 08:07:41;;;;;;;30.38;7.93;;;9.30;99.90;;;;;;5035626;28;20244;-84
2024/02/05 08:10:07;;;;;;;24.25;6.88;;;9.30;99.90;;;;;;5036978;28;20495;-84
2024/02/05 08:12:33;;;;;;;27.45;7.78;;;9.40;99.90;;;;;;5053960;28;20209;-85
2024/02/05 08:15:00;;;;;;;31.38;7.82;;;9.30;99.90;;;;;;5056991;28;20285;-90
2024/02/05 08:17:26;;;;;;;22.40;7.10;;;9.30;99.90;;;;;;5046084;28;20178;-85
2024/02/05 08:19:53;;;;;;;24.92;8.07;;;9.30;99.90;;;;;;5043281;28;20174;-85
2024/02/05 08:22:19;;;;;;;29.88;7.38;;;9.30;99.90;;;;;;5045700;28;20182;-84
2024/02/05 08:24:45;;;;;;;26.10;7.35;;;9.40;99.90;;;;;;5049933;28;20178;-82
2024/02/05 08:27:11;;;;;;;27.20;7.25;;;9.40;99.90;;;;;;5051946;28;20231;-85
2024/02/05 08:29:36;;;;;;;27.50;7.68;;;9.40;99.90;;;;;;5051918;28;20511;-83
2024/02/05 08:32:04;;;;;;;22.55;6.60;;;9.40;99.90;;;;;;5050260;28;20638;-83
2024/02/05 08:34:30;;;;;;;29.77;6.38;;;9.40;99.90;;;;;;5047690;28;20227;-87
2024/02/05 08:36:56;;;;;;;24.35;6.95;;;9.50;99.90;;;;;;5049011;28;20223;-85
2024/02/05 08:39:23;;;;;;;24.35;6.53;;;9.40;99.90;;;;;;5045923;28;20235;-85
2024/02/05 08:41:49;;;;;;;22.90;6.40;;;9.40;99.90;;;;;;5053957;28;20170;-87
2024/02/05 08:44:14;;;;;;;24.95;7.20;;;9.30;99.90;;;;;;5052134;28;20319;-83
2024/02/05 08:46:40;;;;;;;24.38;8.13;;;9.40;99.90;;;;;;5047811;28;20273;-82
2024/02/05 08:49:07;;;;;;;27.00;7.18;;;9.30;99.90;;;;;;5050037;28;20216;-85
2024/02/05 08:51:34;;;;;;;30.48;7.75;;;9.30;99.90;;;;;;5048961;28;20272;-84
2024/02/05 08:53:59;;;;;;;23.52;5.75;;;9.40;99.90;;;;;;5051156;28;20225;-86
2024/02/05 08:56:25;;;;;;;20.70;5.80;;;9.40;99.90;;;;;;5049689;28;20750;-85
2024/02/05 08:58:51;;;;;;;25.92;6.10;;;9.40;99.90;;;;;;5052948;28;20181;-83
2024/02/05 09:01:17;;;;;;;22.85;5.70;;;9.60;99.90;;;;;;5048386;28;20190;-85
2024/02/05 09:03:43;;;;;;;29.38;6.35;;;9.60;99.90;;;;;;5046584;28;20660;-84
2024/02/05 09:06:09;;;;;;;23.27;5.35;;;9.60;99.90;;;;;;5053566;28;20197;-85
2024/02/05 09:08:36;;;;;;;43.47;6.88;;;9.50;99.90;;;;;;5050566;28;20181;-82
2024/02/05 09:11:08;;;;;;;27.52;6.07;;;9.40;99.90;;;;;;5050382;28;20190;-84
2024/02/05 09:13:34;;;;;;;28.10;6.35;;;9.40;99.90;;;;;;5052532;28;20206;-83
2024/02/05 09:16:00;;;;;;;32.28;6.47;;;9.40;99.90;;;;;;5046794;28;20224;-82
2024/02/05 09:18:26;;;;;;;23.85;6.50;;;9.30;99.90;;;;;;5051461;28;20228;-84
2024/02/05 09:20:52;;;;;;;27.40;6.40;;;9.30;99.90;;;;;;5045503;28;20177;-87
2024/02/05 09:23:18;;;;;;;25.20;6.55;;;9.30;99.90;;;;;;5050228;28;20632;-84
2024/02/05 09:25:44;;;;;;;27.20;6.40;;;9.30;99.90;;;;;;5044604;28;20178;-84
2024/02/05 09:28:10;;;;;;;22.70;6.38;;;9.40;99.90;;;;;;5046532;28;20554;-84
2024/02/05 09:30:38;;;;;;;26.92;6.20;;;9.50;99.90;;;;;;5047015;28;20186;-87
2024/02/05 09:33:06;;;;;;;29.58;6.15;;;9.50;99.90;;;;;;5046321;28;20268;-84
2024/02/05 09:35:31;;;;;;;25.55;7.05;;;9.40;99.90;;;;;;5048310;28;20221;-82
2024/02/05 09:37:57;;;;;;;28.20;6.20;;;9.40;99.90;;;;;;5046124;28;20217;-85
2024/02/05 09:40:25;;;;;;;32.63;6.90;;;9.40;99.90;;;;;;5047225;28;20186;-83
2024/02/05 09:42:52;;;;;;;27.10;5.85;;;9.40;99.90;;;;;;5049698;28;20193;-84
2024/02/05 09:45:18;;;;;;;25.70;6.38;;;9.30;99.90;;;;;;5043568;28;20630;-83
2024/02/05 09:47:45;;;;;;;23.95;6.60;;;9.30;99.90;;;;;;5046949;28;20181;-84
2024/02/05 09:50:12;;;;;;;23.85;5.50;;;9.30;99.90;;;;;;5050314;28;20182;-83
2024/02/05 09:52:41;;;;;;;26.52;5.65;;;9.30;99.90;;;;;;5045971;28;20198;-83
2024/02/05 09:55:12;;;;;;;19.88;5.75;;;9.40;99.90;;;;;;5034288;28;20179;-86
2024/02/05 09:57:40;;;;;;;27.33;5.80;;;9.40;99.90;;;;;;5044281;28;20188;-83
2024/02/05 10:00:10;;;;;;;29.77;6.15;;;9.40;99.90;;;;;;5044650;28;20256;-84
2024/02/05 10:02:38;;;;;;;30.50;6.07;;;9.40;99.90;;;;;;5045465;28;20302;-83
2024/02/05 10:05:10;;;;;;;20.20;5.57;;;9.30;99.90;;;;;;5049166;28;20285;-85
2024/02/05 10:07:39;;;;;;;24.70;5.47;;;9.40;99.90;;;;;;5050459;28;20187;-86
2024/02/05 10:10:07;;;;;;;28.90;5.78;;;9.50;99.90;;;;;;5050524;28;20186;-84
2024/02/05 10:12:37;;;;;;;16.87;5.60;;;9.40;99.90;;;;;;5050723;28;20202;-87
2024/02/05 10:15:03;;;;;;;25.70;5.43;;;9.50;99.90;;;;;;5051848;28;20177;-84
2024/02/05 10:17:29;;;;;;;19.50;5.28;;;9.40;99.90;;;;;;5051413;28;20192;-85
2024/02/05 10:19:56;;;;;;;24.67;5.78;;;9.40;99.90;;;;;;5050084;28;20272;-85
2024/02/05 10:22:23;;;;;;;20.65;6.15;;;9.50;99.90;;;;;;5050688;28;20192;-84
2024/02/05 10:24:49;;;;;;;24.27;5.75;;;9.50;99.90;;;;;;5050433;28;20236;-83
2024/02/05 10:27:19;;;;;;;24.73;6.45;;;9.50;99.90;;;;;;5052705;28;20173;-89
2024/02/05 10:29:45;;;;;;;26.00;4.57;;;9.50;99.90;;;;;;5049684;28;20518;-91
2024/02/05 10:32:21;;;;;;;27.88;5.82;;;9.40;99.90;;;;;;5049387;28;20205;-86
2024/02/05 10:34:52;;;;;;;25.98;5.43;;;9.40;99.90;;;;;;5039202;28;20174;-85
2024/02/05 10:37:22;;;;;;;20.17;5.78;;;9.40;99.90;;;;;;5049728;28;20177;-86
2024/02/05 10:39:48;;;;;;;22.33;6.15;;;9.40;99.90;;;;;;5051570;28;20200;-85
2024/02/05 10:42:15;;;;;;;23.27;5.70;;;9.40;99.90;;;;;;5046062;28;20636;-85
2024/02/05 10:44:41;;;;;;;28.45;6.07;;;9.40;99.90;;;;;;5047846;28;20183;-92
2024/02/05 10:47:11;;;;;;;24.77;5.80;;;9.50;99.90;;;;;;5053112;28;20193;-94
2024/02/05 10:49:38;;;;;;;25.13;5.78;;;9.50;99.90;;;;;;5043213;28;20235;-85
2024/02/05 10:52:05;;;;;;;30.83;6.50;;;9.40;99.90;;;;;;5041181;28;20217;-86
2024/02/05 10:54:33;;;;;;;21.85;4.97;;;9.40;99.90;;;;;;5046967;28;20269;-88
2024/02/05 10:57:00;;;;;;;28.95;6.38;;;9.40;99.90;;;;;;5052231;28;20665;-88
2024/02/05 10:59:26;;;;;;;23.30;5.78;;;9.40;99.90;;;;;;5043368;28;20524;-87
2024/02/05 11:01:59;;;;;;;25.92;5.78;;;9.50;99.90;;;;;;5041699;28;20183;-85
2024/02/05 11:04:27;;;;;;;26.92;6.40;;;9.50;99.90;;;;;;5041223;28;20639;-84
2024/02/05 11:06:57;;;;;;;22.92;5.57;;;9.50;99.90;;;;;;5042240;28;20185;-85
2024/02/05 11:09:24;;;;;;;27.25;6.53;;;9.40;99.90;;;;;;5040259;28;20189;-83
2024/02/05 11:11:56;;;;;;;24.35;5.40;;;9.40;99.90;;;;;;5041985;28;20185;-85
2024/02/05 11:14:23;;;;;;;22.42;5.22;;;9.50;99.90;;;;;;5041033;28;20178;-84
2024/02/05 11:16:50;;;;;;;26.88;6.15;;;9.50;99.90;;;;;;5045589;28;20178;-85
2024/02/05 11:19:19;;;;;;;21.58;5.50;;;9.60;99.90;;;;;;5036496;28;20517;-86
2024/02/05 11:21:50;;;;;;;17.90;4.90;;;9.50;99.90;;;;;;5045136;28;20185;-85
2024/02/05 11:24:16;;;;;;;25.65;5.47;;;9.50;99.90;;;;;;5045637;28;20489;-87
2024/02/05 11:26:42;;;;;;;23.55;6.00;;;9.60;99.90;;;;;;5052265;28;20186;-84
2024/02/05 11:29:08;;;;;;;23.85;5.63;;;9.70;99.90;;;;;;5046098;28;20731;-84
2024/02/05 11:31:41;;;;;;;24.60;5.57;;;9.60;99.90;;;;;;5051394;28;20190;-83
2024/02/05 11:34:10;;;;;;;16.63;4.80;;;9.60;99.90;;;;;;5045896;28;20225;-85
2024/02/05 11:36:42;;;;;;;16.55;5.40;;;9.60;99.90;;;;;;5044746;28;20229;-89
2024/02/05 11:39:09;;;;;;;25.95;5.15;;;9.50;99.90;;;;;;5050919;28;20612;-85
2024/02/05 11:41:36;;;;;;;22.98;5.40;;;9.50;99.90;;;;;;5048893;28;20228;-85
2024/02/05 11:44:15;;;;;;;27.15;5.95;;;9.50;99.90;;;;;;5046359;28;20190;-86
2024/02/05 11:46:41;;;;;;;24.45;5.25;;;9.50;99.90;;;;;;5039995;28;20226;-84
2024/02/05 11:49:08;;;;;;;19.83;4.82;;;9.60;99.90;;;;;;5033520;28;20652;-85
2024/02/05 11:51:37;;;;;;;19.57;5.63;;;9.60;99.90;;;;;;5043306;28;20182;-84
2024/02/05 11:54:04;;;;;;;20.30;5.30;;;9.50;99.90;;;;;;5031922;28;20214;-88
2024/02/05 11:56:30;;;;;;;28.13;6.90;;;9.50;99.90;;;;;;5043118;28;20183;-86
2024/02/05 11:58:55;;;;;;;23.63;4.90;;;9.50;99.90;;;;;;5052157;28;20616;-86
2024/02/05 12:01:22;;;;;;;20.38;4.95;;;9.60;99.90;;;;;;5039195;28;20241;-86
2024/02/05 12:03:49;;;;;;;24.98;5.88;;;9.60;99.90;;;;;;5039085;28;20631;-88
2024/02/05 12:06:15;;;;;;;22.92;5.25;;;9.60;99.90;;;;;;5049366;28;20691;-89
2024/02/05 12:08:46;;;;;;;23.10;5.45;;;9.60;99.90;;;;;;5042132;28;20511;-89
2024/02/05 12:11:12;;;;;;;21.75;4.85;;;9.50;99.90;;;;;;5043209;28;20189;-85
2024/02/05 12:13:44;;;;;;;20.67;5.47;;;9.50;99.90;;;;;;5043660;28;20220;-83
2024/02/05 12:16:13;;;;;;;19.98;5.35;;;9.50;99.90;;;;;;5035671;28;20632;-86
2024/02/05 12:18:39;;;;;;;26.08;6.38;;;9.70;99.90;;;;;;5032982;28;20610;-87
2024/02/05 12:21:06;;;;;;;27.40;5.43;;;9.80;99.90;;;;;;5041865;28;20174;-86
2024/02/05 12:23:35;;;;;;;23.63;5.95;;;9.70;99.90;;;;;;5044994;28;20612;-86
2024/02/05 12:26:02;;;;;;;15.65;4.25;;;9.70;99.90;;;;;;5052046;28;20608;-85
2024/02/05 12:28:31;;;;;;;25.23;5.13;;;9.70;99.90;;;;;;5047062;28;20521;-86
2024/02/05 12:30:58;;;;;;;23.52;5.93;;;9.60;99.90;;;;;;5046785;28;20182;-87
2024/02/05 12:33:26;;;;;;;21.38;5.20;;;9.70;99.90;;;;;;5055483;28;20694;-92
2024/02/05 12:36:01;;;;;;;24.05;4.75;;;9.70;99.90;;;;;;5051329;28;20205;-87
2024/02/05 12:38:28;;;;;;;25.83;5.30;;;9.70;99.90;;;;;;5045144;28;20186;-85
2024/02/05 12:40:56;;;;;;;24.85;4.95;;;9.70;99.90;;;;;;5056196;28;20181;-86
2024/02/05 12:43:29;;;;;;;18.17;4.90;;;9.60;99.90;;;;;;5055103;28;20185;-87
2024/02/05 12:45:56;;;;;;;29.23;5.70;;;9.80;99.90;;;;;;5040994;28;20230;-87
2024/02/05 12:48:24;;;;;;;32.25;6.20;;;9.70;99.90;;;;;;5035028;28;20190;-88